createdAt,value
2022-12-16T00:02:15.450Z,27.67
2022-12-16T00:07:21.008Z,30.03
2022-12-16T00:12:26.549Z,28.23
2022-12-16T00:17:32.019Z,26.43
2022-12-16T00:22:37.497Z,27.30
2022-12-16T00:27:42.967Z,30.70
2022-12-16T00:32:48.367Z,30.30
2022-12-16T00:37:54.003Z,31.00
2022-12-16T00:43:00.279Z,31.00
2022-12-16T00:48:06.511Z,27.13
2022-12-16T00:53:11.903Z,28.87
2022-12-16T00:58:17.567Z,25.73
2022-12-16T01:03:23.251Z,25.90
2022-12-16T01:08:28.956Z,25.93
2022-12-16T01:13:35.323Z,28.37
2022-12-16T01:18:41.306Z,29.37
2022-12-16T01:23:48.276Z,30.13
2022-12-16T01:28:54.090Z,27.70
2022-12-16T01:34:00.738Z,27.63
2022-12-16T01:39:06.136Z,27.73
2022-12-16T01:44:17.717Z,28.30
2022-12-16T01:49:28.721Z,28.27
2022-12-16T01:54:37.172Z,28.93
2022-12-16T01:59:45.656Z,30.40
2022-12-16T02:05:09.821Z,29.47
2022-12-16T02:10:15.422Z,28.53
2022-12-16T02:15:40.548Z,29.70
2022-12-16T02:21:09.865Z,26.07
2022-12-16T02:26:21.124Z,28.10
2022-12-16T02:31:35.688Z,27.93
2022-12-16T02:36:47.011Z,27.67
2022-12-16T02:41:55.560Z,26.47
2022-12-16T02:47:01.036Z,25.87
2022-12-16T02:52:07.057Z,26.57
2022-12-16T02:57:49.268Z,28.50
2022-12-16T03:03:10.187Z,27.87
2022-12-16T03:08:27.535Z,28.10
2022-12-16T03:13:35.979Z,27.67
2022-12-16T03:18:44.585Z,28.00
2022-12-16T03:23:53.078Z,27.17
2022-12-16T03:29:10.594Z,28.33
2022-12-16T03:34:31.273Z,25.90
2022-12-16T03:39:39.623Z,26.87
2022-12-16T03:44:46.856Z,25.17
2022-12-16T03:49:52.613Z,26.07
2022-12-16T03:54:58.015Z,25.87
2022-12-16T04:00:03.958Z,26.00
2022-12-16T04:05:11.989Z,25.40
2022-12-16T04:10:17.521Z,26.03
2022-12-16T04:15:41.462Z,28.27
2022-12-16T04:21:08.568Z,27.37
2022-12-16T04:26:14.801Z,27.77
2022-12-16T04:31:20.506Z,28.60
2022-12-16T04:36:43.982Z,27.87
2022-12-16T04:42:09.263Z,27.63
2022-12-16T04:47:32.505Z,28.80
2022-12-16T04:52:55.754Z,28.43
2022-12-16T04:58:21.298Z,28.53
2022-12-16T05:03:45.169Z,27.10
2022-12-16T05:09:08.946Z,27.03
2022-12-16T05:14:32.101Z,27.50
2022-12-16T05:19:55.648Z,27.77
2022-12-16T05:25:19.110Z,28.73
2022-12-16T05:30:42.769Z,26.70
2022-12-16T05:36:05.967Z,28.23
2022-12-16T05:41:29.596Z,27.57
2022-12-16T05:46:53.249Z,30.00
2022-12-16T05:52:17.024Z,29.63
2022-12-16T05:57:40.687Z,28.57
2022-12-16T06:03:04.346Z,29.73
2022-12-16T06:08:28.242Z,31.87
2022-12-16T06:13:51.597Z,29.33
2022-12-16T06:19:15.247Z,30.43
2022-12-16T06:24:38.398Z,28.70
2022-12-16T06:30:01.901Z,31.33
2022-12-16T06:35:25.856Z,29.27
2022-12-16T06:40:49.241Z,33.13
2022-12-16T06:46:12.487Z,30.20
2022-12-16T06:51:35.901Z,33.97
2022-12-16T06:56:59.598Z,32.10
2022-12-16T07:02:22.968Z,30.37
2022-12-16T07:07:39.409Z,30.13
2022-12-16T07:13:02.925Z,29.30
2022-12-16T07:18:26.183Z,29.40
2022-12-16T07:23:49.849Z,28.57
2022-12-16T07:29:14.053Z,30.20
2022-12-16T07:34:41.442Z,30.20
2022-12-16T07:40:02.881Z,29.57
2022-12-16T07:45:27.252Z,29.03
2022-12-16T07:50:50.878Z,31.07
2022-12-16T07:56:14.206Z,30.20
2022-12-16T08:01:38.000Z,31.03
2022-12-16T08:07:01.226Z,30.10
2022-12-16T08:12:24.685Z,30.40
2022-12-16T08:17:48.030Z,30.70
2022-12-16T08:23:11.388Z,31.17
2022-12-16T08:28:34.857Z,29.93
2022-12-16T08:33:57.845Z,30.93
2022-12-16T08:39:21.381Z,33.37
2022-12-16T08:44:44.569Z,32.13
2022-12-16T08:50:08.551Z,30.40
2022-12-16T08:55:32.029Z,30.57
2022-12-16T09:00:51.459Z,31.63
2022-12-16T09:06:18.947Z,30.80
2022-12-16T09:11:42.286Z,30.40
2022-12-16T09:17:07.374Z,29.07
2022-12-16T09:22:30.626Z,29.10
2022-12-16T09:27:53.831Z,28.13
2022-12-16T09:33:19.410Z,27.60
2022-12-16T09:38:42.764Z,26.93
2022-12-16T09:44:15.198Z,28.37
2022-12-16T09:49:44.776Z,28.53
2022-12-16T09:55:08.563Z,26.77
2022-12-16T10:00:37.908Z,29.50
2022-12-16T10:06:15.942Z,36.63
2022-12-16T10:11:42.224Z,35.43
2022-12-16T10:17:11.550Z,34.07
2022-12-16T10:22:43.830Z,34.37
2022-12-16T10:28:09.125Z,34.93
2022-12-16T10:33:35.370Z,36.57
2022-12-16T10:39:05.184Z,38.67
2022-12-16T10:44:40.593Z,36.37
2022-12-16T10:50:04.171Z,37.97
2022-12-16T10:55:33.572Z,37.17
2022-12-16T11:01:08.770Z,36.63
2022-12-16T11:06:37.848Z,37.57
2022-12-16T11:12:01.474Z,37.63
2022-12-16T11:17:39.411Z,37.00
2022-12-16T11:23:02.610Z,37.17
2022-12-16T11:28:31.304Z,33.97
2022-12-16T11:33:55.197Z,34.10
2022-12-16T11:39:21.339Z,33.77
2022-12-16T11:44:50.731Z,35.73
2022-12-16T11:50:17.458Z,36.07
2022-12-16T12:01:20.740Z,35.13
2022-12-16T12:07:11.376Z,35.83
2022-12-16T12:12:46.610Z,36.13
2022-12-16T12:18:41.611Z,35.87
2022-12-16T12:24:17.021Z,40.70
2022-12-16T12:29:55.186Z,38.87
2022-12-16T12:35:42.109Z,37.97
2022-12-16T12:41:11.110Z,40.03
2022-12-16T12:46:58.300Z,42.73
2022-12-16T12:52:39.339Z,42.67
2022-12-16T12:58:05.601Z,39.97
2022-12-16T13:03:57.691Z,41.93
2022-12-16T13:09:22.085Z,41.73
2022-12-16T13:14:54.196Z,40.60
2022-12-16T13:20:19.114Z,40.90
2022-12-16T13:26:03.731Z,42.63
2022-12-16T13:31:28.902Z,41.53
2022-12-16T13:36:55.812Z,39.83
2022-12-16T13:42:20.002Z,39.77
2022-12-16T13:48:01.281Z,42.33
2022-12-16T13:53:20.089Z,42.30
2022-12-16T13:58:48.980Z,42.13
2022-12-16T14:04:13.764Z,45.87
2022-12-16T14:10:03.299Z,46.43
2022-12-16T14:15:29.887Z,47.40
2022-12-16T14:20:55.969Z,47.93
2022-12-16T14:26:20.999Z,55.23
2022-12-16T14:31:53.151Z,55.27
2022-12-16T14:37:19.311Z,63.80
2022-12-16T14:42:43.267Z,59.23
2022-12-16T14:48:06.826Z,57.47
2022-12-16T14:53:41.489Z,48.73
2022-12-16T14:59:00.582Z,45.83
2022-12-16T15:04:27.130Z,41.10
2022-12-16T15:09:56.527Z,37.97
2022-12-16T15:15:22.238Z,37.00
2022-12-16T15:20:48.545Z,36.80
2022-12-16T15:26:14.920Z,38.13
2022-12-16T15:31:44.271Z,37.67
2022-12-16T15:37:07.899Z,36.13
2022-12-16T15:42:40.672Z,37.97
2022-12-16T15:48:06.938Z,37.50
2022-12-16T15:53:51.629Z,37.20
2022-12-16T15:59:18.160Z,35.67
2022-12-16T16:04:48.855Z,35.37
2022-12-16T16:10:14.951Z,37.90
2022-12-16T16:15:38.457Z,38.43
2022-12-16T16:21:02.318Z,36.40
2022-12-16T16:26:27.015Z,35.60
2022-12-16T16:31:50.389Z,36.00
2022-12-16T16:37:16.622Z,33.67
2022-12-16T16:42:40.930Z,34.63
2022-12-16T16:48:03.025Z,35.03
2022-12-16T16:53:29.601Z,34.97
2022-12-16T16:58:54.223Z,37.03
2022-12-16T17:04:18.332Z,39.17
2022-12-16T17:09:41.920Z,39.33
2022-12-16T17:15:05.456Z,40.27
2022-12-16T17:20:34.062Z,40.17
2022-12-16T17:25:57.490Z,39.03
2022-12-16T17:31:20.951Z,37.23
2022-12-16T17:36:44.776Z,37.57
2022-12-16T17:42:09.688Z,34.07
2022-12-16T17:53:14.033Z,34.33
2022-12-16T17:58:37.138Z,34.80
2022-12-16T18:04:01.501Z,34.87
2022-12-16T18:09:25.072Z,35.20
2022-12-16T18:14:48.448Z,35.23
2022-12-16T18:20:11.629Z,35.37
2022-12-16T18:25:35.483Z,36.63
2022-12-16T18:30:59.181Z,35.00
2022-12-16T18:36:22.829Z,37.00
2022-12-16T18:41:46.376Z,34.77
2022-12-16T18:47:10.023Z,38.10
2022-12-16T18:52:33.206Z,33.63
2022-12-16T18:57:56.823Z,38.90
2022-12-16T19:03:20.281Z,38.30
2022-12-16T19:08:30.005Z,37.47
2022-12-16T19:13:53.536Z,38.20
2022-12-16T19:19:20.195Z,38.97
2022-12-16T19:24:42.514Z,51.88
2022-12-16T19:30:06.236Z,37.97
2022-12-16T19:35:29.697Z,38.57
2022-12-16T19:40:53.750Z,35.23
2022-12-16T19:46:17.633Z,43.40
2022-12-16T19:51:41.417Z,35.93
2022-12-16T19:57:04.705Z,38.10
2022-12-16T20:02:31.347Z,38.87
2022-12-16T20:07:56.285Z,36.70
2022-12-16T20:13:24.957Z,35.90
2022-12-16T20:18:45.404Z,37.80
2022-12-16T20:24:08.848Z,35.10
2022-12-16T20:29:32.815Z,34.03
2022-12-16T20:34:56.510Z,34.33
2022-12-16T20:40:19.939Z,49.63
2022-12-16T20:45:43.361Z,39.37
2022-12-16T20:51:18.563Z,37.03
2022-12-16T20:56:40.928Z,35.77
2022-12-16T21:07:29.457Z,34.83
2022-12-16T21:12:52.727Z,36.93
2022-12-16T21:18:19.357Z,34.90
2022-12-16T21:23:43.181Z,35.27
2022-12-16T21:29:07.345Z,36.20
2022-12-16T21:34:31.063Z,37.90
2022-12-16T21:39:54.670Z,34.40
2022-12-16T21:45:18.268Z,36.83
2022-12-16T21:50:41.660Z,34.33
2022-12-16T21:56:12.912Z,34.77
2022-12-16T22:01:36.562Z,34.87
2022-12-16T22:06:59.850Z,35.87
2022-12-16T22:12:23.481Z,34.50
2022-12-16T22:17:46.951Z,34.27
2022-12-16T22:23:10.218Z,34.23
2022-12-16T22:28:33.513Z,32.03
2022-12-16T22:33:57.402Z,31.87
2022-12-16T22:39:20.536Z,33.30
2022-12-16T22:44:44.068Z,33.50
2022-12-16T22:50:07.698Z,32.37
2022-12-16T22:55:31.184Z,31.93
2022-12-16T23:00:56.397Z,29.93
2022-12-16T23:06:19.929Z,31.47
2022-12-16T23:11:52.789Z,30.80
2022-12-16T23:17:17.829Z,30.03
2022-12-16T23:22:41.373Z,30.57
2022-12-16T23:28:05.093Z,28.87
2022-12-16T23:33:28.649Z,29.17
2022-12-16T23:38:52.306Z,28.53
2022-12-16T23:44:16.560Z,28.47
2022-12-16T23:49:39.844Z,29.37
2022-12-16T23:55:03.289Z,28.67
